Sumisemaru No.5 — JE3162 — position and weather

sailwx.info

Track history (hours):
 
Tides and Currents Weather Stations Pressure Air Temp Water Temp Dewpoint Dewpoint Depression Visibility Wind Speed Wind Dir Waves Ship Positions

Sumisemaru No.5

Last reported at 2014-Oct-19 04:33 UTC. Time now 2014-Oct-25 15:29 UTC.
Position N 35°14' E 139°46'.

Length 96 m; draft 5.3 m.

Type: Cargo ship. MMSI: 431700423.

Date/timePositionNaut miles runAvg speedWind from/ knotsBaromVisibWave heightAir tempDewpointWater temp
2014-Oct-19 04:33N 35°14' E 139°46'1212.5
2014-Oct-19 03:33N 35°26' E 139°42'3 3.4
2014-Oct-19 02:33N 35°29' E 139°40'0 0.0
2014-Oct-19 01:33N 35°29' E 139°40'0 0.0
2014-Oct-19 00:33N 35°29' E 139°40'0 0.0
2014-Oct-18 23:33N 35°29' E 139°40'2 2.1
2014-Oct-18 22:33N 35°27' E 139°41'1 1.1
2014-Oct-18 21:31N 35°26' E 139°42'0 0.0
2014-Oct-18 20:31N 35°26' E 139°42'0 0.0
2014-Oct-18 19:31N 35°26' E 139°42'0 0.0
2014-Oct-18 18:31N 35°26' E 139°42'0 0.0
2014-Oct-18 17:31N 35°26' E 139°42'0 0.0
2014-Oct-18 16:31N 35°26' E 139°42'0 0.0
2014-Oct-18 15:31N 35°26' E 139°42'0 0.1
2014-Oct-18 14:31N 35°26' E 139°42'0 0.0
2014-Oct-18 13:31N 35°26' E 139°42'5 4.8
2014-Oct-18 12:33N 35°21' E 139°43'1212.1
2014-Oct-18 11:33N 35°10' E 139°46'  
Track history (hours):
 
Tides and Currents Weather Stations Pressure Air Temp Water Temp Dewpoint Dewpoint Depression Visibility Wind Speed Wind Dir Waves Ship Positions

Sumisemaru No.5

Last reported at 2014-Oct-19 04:33 UTC. Time now 2014-Oct-25 15:29 UTC.
Position N 35°14' E 139°46'.

Length 96 m; draft 5.3 m.

Type: Cargo ship. MMSI: 431700423.

Date/timePositionNaut miles runAvg speedWind from/ knotsBaromVisibWave heightAir tempDewpointWater temp
2014-Oct-19 04:33N 35°14' E 139°46'1212.5
2014-Oct-19 03:33N 35°26' E 139°42'3 3.4
2014-Oct-19 02:33N 35°29' E 139°40'0 0.0
2014-Oct-19 01:33N 35°29' E 139°40'0 0.0
2014-Oct-19 00:33N 35°29' E 139°40'0 0.0
2014-Oct-18 23:33N 35°29' E 139°40'2 2.1
2014-Oct-18 22:33N 35°27' E 139°41'1 1.1
2014-Oct-18 21:31N 35°26' E 139°42'0 0.0
2014-Oct-18 20:31N 35°26' E 139°42'0 0.0
2014-Oct-18 19:31N 35°26' E 139°42'0 0.0
2014-Oct-18 18:31N 35°26' E 139°42'0 0.0
2014-Oct-18 17:31N 35°26' E 139°42'0 0.0
2014-Oct-18 16:31N 35°26' E 139°42'0 0.0
2014-Oct-18 15:31N 35°26' E 139°42'0 0.1
2014-Oct-18 14:31N 35°26' E 139°42'0 0.0
2014-Oct-18 13:31N 35°26' E 139°42'5 4.8
2014-Oct-18 12:33N 35°21' E 139°43'1212.1
2014-Oct-18 11:33N 35°10' E 139°46'  

Dump ship's entire track history